sensor_id;sensor_type;location;lat;lon;timestamp;P1;durP1;ratioP1;P2;durP2;ratioP2
82876;SDS011;72655;47.596;7.658;2023-09-08T05:55:28;12.73;;;8.30;;
82876;SDS011;72655;47.596;7.658;2023-09-08T05:57:55;10.50;;;8.55;;
82876;SDS011;72655;47.596;7.658;2023-09-08T06:00:22;15.75;;;8.95;;
82876;SDS011;72655;47.596;7.658;2023-09-08T06:02:49;9.95;;;8.30;;
82876;SDS011;72655;47.596;7.658;2023-09-08T06:05:16;11.10;;;8.10;;
82876;SDS011;72655;47.596;7.658;2023-09-08T06:07:44;10.55;;;7.50;;
82876;SDS011;72655;47.596;7.658;2023-09-08T06:10:10;13.35;;;8.73;;
82876;SDS011;72655;47.596;7.658;2023-09-08T06:12:39;11.43;;;8.48;;
82876;SDS011;72655;47.596;7.658;2023-09-08T06:15:09;12.60;;;8.55;;
82876;SDS011;72655;47.596;7.658;2023-09-08T06:17:36;17.80;;;9.65;;
82876;SDS011;72655;47.596;7.658;2023-09-08T06:20:03;12.07;;;8.27;;
82876;SDS011;72655;47.596;7.658;2023-09-08T06:22:30;14.45;;;9.25;;
82876;SDS011;72655;47.596;7.658;2023-09-08T06:24:57;12.50;;;8.48;;
82876;SDS011;72655;47.596;7.658;2023-09-08T06:27:24;12.55;;;9.13;;
82876;SDS011;72655;47.596;7.658;2023-09-08T06:29:52;10.43;;;8.27;;
82876;SDS011;72655;47.596;7.658;2023-09-08T06:32:19;14.45;;;8.65;;
82876;SDS011;72655;47.596;7.658;2023-09-08T06:34:46;11.82;;;8.88;;
82876;SDS011;72655;47.596;7.658;2023-09-08T06:37:13;13.50;;;8.30;;
82876;SDS011;72655;47.596;7.658;2023-09-08T06:39:40;13.65;;;8.70;;
82876;SDS011;72655;47.596;7.658;2023-09-08T06:42:07;17.85;;;9.23;;
82876;SDS011;72655;47.596;7.658;2023-09-08T06:44:34;14.30;;;8.57;;
82876;SDS011;72655;47.596;7.658;2023-09-08T06:47:02;12.88;;;8.70;;
82876;SDS011;72655;47.596;7.658;2023-09-08T06:49:31;11.52;;;8.13;;
82876;SDS011;72655;47.596;7.658;2023-09-08T06:51:58;10.57;;;8.50;;
82876;SDS011;72655;47.596;7.658;2023-09-08T06:54:25;12.90;;;8.60;;
82876;SDS011;72655;47.596;7.658;2023-09-08T06:56:52;12.00;;;8.82;;
82876;SDS011;72655;47.596;7.658;2023-09-08T06:59:19;15.10;;;9.02;;
82876;SDS011;72655;47.596;7.658;2023-09-08T07:01:46;10.13;;;8.00;;
82876;SDS011;72655;47.596;7.658;2023-09-08T07:04:14;15.80;;;8.48;;
82876;SDS011;72655;47.596;7.658;2023-09-08T07:06:41;11.00;;;8.48;;
82876;SDS011;72655;47.596;7.658;2023-09-08T07:09:10;11.13;;;8.00;;
82876;SDS011;72655;47.596;7.658;2023-09-08T07:11:37;9.98;;;7.53;;
82876;SDS011;72655;47.596;7.658;2023-09-08T07:14:04;12.80;;;8.00;;
82876;SDS011;72655;47.596;7.658;2023-09-08T07:16:31;10.45;;;7.82;;
82876;SDS011;72655;47.596;7.658;2023-09-08T07:18:58;13.55;;;7.97;;
82876;SDS011;72655;47.596;7.658;2023-09-08T07:21:27;8.43;;;7.15;;
82876;SDS011;72655;47.596;7.658;2023-09-08T07:23:54;12.82;;;7.38;;
82876;SDS011;72655;47.596;7.658;2023-09-08T07:26:21;9.27;;;7.13;;
82876;SDS011;72655;47.596;7.658;2023-09-08T07:28:48;8.43;;;7.03;;
82876;SDS011;72655;47.596;7.658;2023-09-08T07:31:15;11.68;;;7.55;;
82876;SDS011;72655;47.596;7.658;2023-09-08T07:33:42;11.75;;;7.55;;
82876;SDS011;72655;47.596;7.658;2023-09-08T07:36:09;9.07;;;7.78;;
82876;SDS011;72655;47.596;7.658;2023-09-08T07:38:38;11.50;;;8.15;;
82876;SDS011;72655;47.596;7.658;2023-09-08T07:41:05;11.70;;;7.10;;
82876;SDS011;72655;47.596;7.658;2023-09-08T07:43:32;8.52;;;7.15;;
82876;SDS011;72655;47.596;7.658;2023-09-08T07:45:59;10.50;;;7.15;;
82876;SDS011;72655;47.596;7.658;2023-09-08T07:48:26;15.00;;;7.28;;
82876;SDS011;72655;47.596;7.658;2023-09-08T07:50:53;9.50;;;7.50;;
82876;SDS011;72655;47.596;7.658;2023-09-08T07:53:20;11.35;;;7.35;;
82876;SDS011;72655;47.596;7.658;2023-09-08T07:55:48;14.30;;;7.15;;
82876;SDS011;72655;47.596;7.658;2023-09-08T07:58:15;8.63;;;6.85;;
82876;SDS011;72655;47.596;7.658;2023-09-08T08:00:42;9.75;;;7.15;;
82876;SDS011;72655;47.596;7.658;2023-09-08T08:03:09;9.45;;;7.70;;
82876;SDS011;72655;47.596;7.658;2023-09-08T08:05:36;11.18;;;7.97;;
82876;SDS011;72655;47.596;7.658;2023-09-08T08:08:03;9.30;;;7.13;;
82876;SDS011;72655;47.596;7.658;2023-09-08T08:10:30;11.90;;;7.20;;
82876;SDS011;72655;47.596;7.658;2023-09-08T08:12:59;9.95;;;6.85;;
82876;SDS011;72655;47.596;7.658;2023-09-08T08:15:34;10.57;;;7.25;;
82876;SDS011;72655;47.596;7.658;2023-09-08T08:18:03;10.50;;;8.25;;
82876;SDS011;72655;47.596;7.658;2023-09-08T08:20:30;9.90;;;7.25;;
82876;SDS011;72655;47.596;7.658;2023-09-08T08:22:59;12.98;;;7.43;;
82876;SDS011;72655;47.596;7.658;2023-09-08T08:25:27;12.55;;;7.18;;
82876;SDS011;72655;47.596;7.658;2023-09-08T08:27:54;10.52;;;7.97;;
82876;SDS011;72655;47.596;7.658;2023-09-08T08:30:24;10.05;;;7.43;;
82876;SDS011;72655;47.596;7.658;2023-09-08T08:32:51;14.88;;;8.20;;
82876;SDS011;72655;47.596;7.658;2023-09-08T08:35:19;9.80;;;7.38;;
82876;SDS011;72655;47.596;7.658;2023-09-08T08:37:46;10.55;;;8.05;;
82876;SDS011;72655;47.596;7.658;2023-09-08T08:40:13;9.48;;;7.78;;
82876;SDS011;72655;47.596;7.658;2023-09-08T08:42:40;12.60;;;7.47;;
82876;SDS011;72655;47.596;7.658;2023-09-08T08:45:09;10.68;;;7.53;;
82876;SDS011;72655;47.596;7.658;2023-09-08T08:47:38;13.77;;;8.40;;
82876;SDS011;72655;47.596;7.658;2023-09-08T08:50:06;11.98;;;7.88;;
82876;SDS011;72655;47.596;7.658;2023-09-08T08:52:36;10.93;;;7.88;;
82876;SDS011;72655;47.596;7.658;2023-09-08T08:55:05;14.18;;;7.97;;
82876;SDS011;72655;47.596;7.658;2023-09-08T08:57:33;11.82;;;8.02;;
82876;SDS011;72655;47.596;7.658;2023-09-08T09:00:03;10.70;;;7.68;;
82876;SDS011;72655;47.596;7.658;2023-09-08T09:02:34;9.70;;;7.63;;
82876;SDS011;72655;47.596;7.658;2023-09-08T09:05:06;10.10;;;8.45;;
82876;SDS011;72655;47.596;7.658;2023-09-08T09:07:34;13.15;;;9.02;;
82876;SDS011;72655;47.596;7.658;2023-09-08T09:10:02;9.13;;;7.63;;
82876;SDS011;72655;47.596;7.658;2023-09-08T09:12:30;10.45;;;8.65;;
82876;SDS011;72655;47.596;7.658;2023-09-08T09:14:58;15.38;;;8.35;;
82876;SDS011;72655;47.596;7.658;2023-09-08T09:17:25;13.57;;;8.60;;
82876;SDS011;72655;47.596;7.658;2023-09-08T09:19:56;10.70;;;8.80;;
82876;SDS011;72655;47.596;7.658;2023-09-08T09:22:42;18.08;;;9.23;;
82876;SDS011;72655;47.596;7.658;2023-09-08T09:25:10;12.10;;;9.30;;
82876;SDS011;72655;47.596;7.658;2023-09-08T09:27:49;12.18;;;8.05;;
82876;SDS011;72655;47.596;7.658;2023-09-08T09:30:20;11.00;;;7.80;;
82876;SDS011;72655;47.596;7.658;2023-09-08T09:32:48;9.23;;;7.15;;
82876;SDS011;72655;47.596;7.658;2023-09-08T09:35:17;12.73;;;7.80;;
82876;SDS011;72655;47.596;7.658;2023-09-08T09:37:44;10.50;;;7.75;;
82876;SDS011;72655;47.596;7.658;2023-09-08T09:40:13;10.45;;;6.93;;
82876;SDS011;72655;47.596;7.658;2023-09-08T09:42:40;10.73;;;7.25;;
82876;SDS011;72655;47.596;7.658;2023-09-08T09:45:07;10.48;;;6.63;;
82876;SDS011;72655;47.596;7.658;2023-09-08T09:47:35;10.07;;;6.47;;
82876;SDS011;72655;47.596;7.658;2023-09-08T09:50:03;9.40;;;6.97;;
82876;SDS011;72655;47.596;7.658;2023-09-08T09:52:32;9.48;;;6.97;;
82876;SDS011;72655;47.596;7.658;2023-09-08T09:55:05;8.00;;;6.53;;
82876;SDS011;72655;47.596;7.658;2023-09-08T09:57:33;8.45;;;5.90;;
82876;SDS011;72655;47.596;7.658;2023-09-08T10:00:03;10.38;;;7.05;;
82876;SDS011;72655;47.596;7.658;2023-09-08T10:02:31;10.60;;;6.65;;
82876;SDS011;72655;47.596;7.658;2023-09-08T10:04:59;10.93;;;6.82;;
82876;SDS011;72655;47.596;7.658;2023-09-08T10:07:39;10.30;;;6.80;;
82876;SDS011;72655;47.596;7.658;2023-09-08T10:10:06;11.15;;;7.40;;
82876;SDS011;72655;47.596;7.658;2023-09-08T10:12:34;7.95;;;6.25;;
82876;SDS011;72655;47.596;7.658;2023-09-08T10:15:05;13.38;;;7.20;;
82876;SDS011;72655;47.596;7.658;2023-09-08T10:17:36;10.23;;;6.57;;
82876;SDS011;72655;47.596;7.658;2023-09-08T10:20:04;8.48;;;6.15;;
82876;SDS011;72655;47.596;7.658;2023-09-08T10:22:36;8.07;;;6.65;;
82876;SDS011;72655;47.596;7.658;2023-09-08T10:25:08;9.55;;;6.70;;
82876;SDS011;72655;47.596;7.658;2023-09-08T10:27:38;7.45;;;6.28;;
82876;SDS011;72655;47.596;7.658;2023-09-08T10:30:06;12.75;;;7.15;;
82876;SDS011;72655;47.596;7.658;2023-09-08T10:32:35;9.90;;;7.47;;
82876;SDS011;72655;47.596;7.658;2023-09-08T10:35:03;13.63;;;6.78;;
82876;SDS011;72655;47.596;7.658;2023-09-08T10:37:31;9.65;;;6.90;;
82876;SDS011;72655;47.596;7.658;2023-09-08T10:42:48;9.07;;;6.40;;
82876;SDS011;72655;47.596;7.658;2023-09-08T10:45:16;9.07;;;6.75;;
82876;SDS011;72655;47.596;7.658;2023-09-08T10:47:55;11.32;;;6.72;;
82876;SDS011;72655;47.596;7.658;2023-09-08T10:50:26;11.63;;;6.63;;
82876;SDS011;72655;47.596;7.658;2023-09-08T10:53:04;10.63;;;6.35;;
82876;SDS011;72655;47.596;7.658;2023-09-08T10:55:38;7.78;;;6.15;;
82876;SDS011;72655;47.596;7.658;2023-09-08T10:58:09;11.95;;;6.00;;
82876;SDS011;72655;47.596;7.658;2023-09-08T11:00:43;8.10;;;5.75;;
82876;SDS011;72655;47.596;7.658;2023-09-08T11:03:11;8.63;;;6.25;;
82876;SDS011;72655;47.596;7.658;2023-09-08T11:05:39;8.63;;;6.50;;
82876;SDS011;72655;47.596;7.658;2023-09-08T11:08:07;7.88;;;5.95;;
82876;SDS011;72655;47.596;7.658;2023-09-08T11:10:34;7.07;;;5.78;;
82876;SDS011;72655;47.596;7.658;2023-09-08T11:13:04;8.40;;;6.05;;
82876;SDS011;72655;47.596;7.658;2023-09-08T11:15:31;5.97;;;5.38;;
82876;SDS011;72655;47.596;7.658;2023-09-08T11:18:02;8.52;;;5.75;;
82876;SDS011;72655;47.596;7.658;2023-09-08T11:20:31;8.15;;;5.82;;
82876;SDS011;72655;47.596;7.658;2023-09-08T11:22:59;5.57;;;5.00;;
82876;SDS011;72655;47.596;7.658;2023-09-08T11:25:26;9.80;;;5.88;;
82876;SDS011;72655;47.596;7.658;2023-09-08T11:27:54;10.90;;;5.60;;
82876;SDS011;72655;47.596;7.658;2023-09-08T11:30:24;7.32;;;4.97;;
82876;SDS011;72655;47.596;7.658;2023-09-08T11:32:51;12.27;;;5.43;;
82876;SDS011;72655;47.596;7.658;2023-09-08T11:35:18;8.15;;;5.18;;
82876;SDS011;72655;47.596;7.658;2023-09-08T11:37:46;6.15;;;5.22;;
82876;SDS011;72655;47.596;7.658;2023-09-08T11:40:14;6.40;;;5.20;;
82876;SDS011;72655;47.596;7.658;2023-09-08T11:42:43;7.07;;;5.10;;
82876;SDS011;72655;47.596;7.658;2023-09-08T11:45:11;6.28;;;5.30;;
82876;SDS011;72655;47.596;7.658;2023-09-08T11:47:43;6.75;;;5.18;;
82876;SDS011;72655;47.596;7.658;2023-09-08T11:50:10;4.90;;;4.50;;
82876;SDS011;72655;47.596;7.658;2023-09-08T11:52:41;9.60;;;5.88;;
82876;SDS011;72655;47.596;7.658;2023-09-08T11:55:10;6.35;;;5.38;;
82876;SDS011;72655;47.596;7.658;2023-09-08T11:57:38;5.72;;;5.20;;
82876;SDS011;72655;47.596;7.658;2023-09-08T12:00:06;6.57;;;5.38;;
82876;SDS011;72655;47.596;7.658;2023-09-08T12:02:36;6.30;;;4.88;;
82876;SDS011;72655;47.596;7.658;2023-09-08T12:05:05;7.57;;;5.57;;
82876;SDS011;72655;47.596;7.658;2023-09-08T12:07:37;7.25;;;5.32;;
82876;SDS011;72655;47.596;7.658;2023-09-08T12:10:06;6.38;;;5.35;;
82876;SDS011;72655;47.596;7.658;2023-09-08T12:12:40;7.25;;;5.40;;
82876;SDS011;72655;47.596;7.658;2023-09-08T12:15:09;5.82;;;4.55;;
82876;SDS011;72655;47.596;7.658;2023-09-08T12:17:46;8.98;;;5.93;;
82876;SDS011;72655;47.596;7.658;2023-09-08T12:20:15;5.40;;;4.90;;
82876;SDS011;72655;47.596;7.658;2023-09-08T12:22:49;7.35;;;5.28;;
82876;SDS011;72655;47.596;7.658;2023-09-08T12:25:16;5.25;;;4.50;;
82876;SDS011;72655;47.596;7.658;2023-09-08T12:27:44;5.95;;;5.07;;
82876;SDS011;72655;47.596;7.658;2023-09-08T12:30:16;6.95;;;5.35;;
82876;SDS011;72655;47.596;7.658;2023-09-08T12:32:45;6.10;;;5.22;;
82876;SDS011;72655;47.596;7.658;2023-09-08T12:35:18;5.88;;;5.10;;
82876;SDS011;72655;47.596;7.658;2023-09-08T12:37:47;7.03;;;4.75;;
82876;SDS011;72655;47.596;7.658;2023-09-08T12:48:33;12.32;;;5.38;;
82876;SDS011;72655;47.596;7.658;2023-09-08T12:51:00;17.33;;;4.53;;
82876;SDS011;72655;47.596;7.658;2023-09-08T12:53:29;7.57;;;5.00;;
82876;SDS011;72655;47.596;7.658;2023-09-08T12:55:59;7.93;;;4.95;;
82876;SDS011;72655;47.596;7.658;2023-09-08T12:58:26;7.10;;;4.50;;
82876;SDS011;72655;47.596;7.658;2023-09-08T13:00:53;7.65;;;5.22;;
82876;SDS011;72655;47.596;7.658;2023-09-08T13:03:21;7.28;;;4.60;;
82876;SDS011;72655;47.596;7.658;2023-09-08T13:05:49;8.25;;;4.53;;
82876;SDS011;72655;47.596;7.658;2023-09-08T13:08:16;7.15;;;3.90;;
82876;SDS011;72655;47.596;7.658;2023-09-08T13:10:43;5.28;;;3.75;;
82876;SDS011;72655;47.596;7.658;2023-09-08T13:13:10;6.43;;;3.90;;
82876;SDS011;72655;47.596;7.658;2023-09-08T13:15:37;6.13;;;4.47;;
82876;SDS011;72655;47.596;7.658;2023-09-08T13:18:04;9.32;;;4.50;;
82876;SDS011;72655;47.596;7.658;2023-09-08T13:20:32;4.38;;;3.92;;
82876;SDS011;72655;47.596;7.658;2023-09-08T13:23:00;3.47;;;3.17;;
82876;SDS011;72655;47.596;7.658;2023-09-08T13:25:27;5.75;;;3.90;;
82876;SDS011;72655;47.596;7.658;2023-09-08T13:27:54;5.45;;;3.80;;
82876;SDS011;72655;47.596;7.658;2023-09-08T13:30:21;7.45;;;3.63;;
82876;SDS011;72655;47.596;7.658;2023-09-08T13:32:51;6.70;;;3.80;;
82876;SDS011;72655;47.596;7.658;2023-09-08T13:35:18;8.20;;;3.85;;
82876;SDS011;72655;47.596;7.658;2023-09-08T13:37:45;4.43;;;3.80;;
82876;SDS011;72655;47.596;7.658;2023-09-08T13:40:14;3.78;;;3.45;;
82876;SDS011;72655;47.596;7.658;2023-09-08T13:42:41;6.28;;;3.60;;
82876;SDS011;72655;47.596;7.658;2023-09-08T13:45:08;5.30;;;3.47;;
82876;SDS011;72655;47.596;7.658;2023-09-08T13:47:35;5.88;;;3.80;;
82876;SDS011;72655;47.596;7.658;2023-09-08T13:50:03;4.05;;;3.47;;
82876;SDS011;72655;47.596;7.658;2023-09-08T13:52:31;5.75;;;3.70;;
82876;SDS011;72655;47.596;7.658;2023-09-08T13:54:58;6.38;;;3.60;;
82876;SDS011;72655;47.596;7.658;2023-09-08T13:57:26;4.20;;;3.70;;
82876;SDS011;72655;47.596;7.658;2023-09-08T13:59:53;5.60;;;3.92;;
82876;SDS011;72655;47.596;7.658;2023-09-08T14:02:20;3.35;;;3.05;;
82876;SDS011;72655;47.596;7.658;2023-09-08T14:04:47;4.32;;;3.22;;
82876;SDS011;72655;47.596;7.658;2023-09-08T14:07:14;3.50;;;3.20;;
82876;SDS011;72655;47.596;7.658;2023-09-08T14:09:41;5.88;;;3.30;;
82876;SDS011;72655;47.596;7.658;2023-09-08T14:12:08;3.88;;;3.08;;
82876;SDS011;72655;47.596;7.658;2023-09-08T14:14:36;5.10;;;3.17;;
82876;SDS011;72655;47.596;7.658;2023-09-08T14:17:03;6.20;;;2.85;;
82876;SDS011;72655;47.596;7.658;2023-09-08T14:19:30;4.88;;;3.30;;
82876;SDS011;72655;47.596;7.658;2023-09-08T14:21:57;6.25;;;3.20;;
82876;SDS011;72655;47.596;7.658;2023-09-08T14:24:24;3.53;;;2.90;;
82876;SDS011;72655;47.596;7.658;2023-09-08T14:26:51;4.13;;;3.20;;
82876;SDS011;72655;47.596;7.658;2023-09-08T14:29:18;3.92;;;3.55;;
82876;SDS011;72655;47.596;7.658;2023-09-08T14:31:48;5.35;;;3.60;;
82876;SDS011;72655;47.596;7.658;2023-09-08T14:34:15;3.50;;;3.20;;
82876;SDS011;72655;47.596;7.658;2023-09-08T14:36:43;4.03;;;3.63;;
82876;SDS011;72655;47.596;7.658;2023-09-08T14:39:10;4.05;;;3.53;;
82876;SDS011;72655;47.596;7.658;2023-09-08T14:41:37;6.15;;;3.28;;
82876;SDS011;72655;47.596;7.658;2023-09-08T14:44:04;7.05;;;3.55;;
82876;SDS011;72655;47.596;7.658;2023-09-08T14:46:31;5.15;;;3.30;;
82876;SDS011;72655;47.596;7.658;2023-09-08T14:48:59;4.95;;;3.00;;
82876;SDS011;72655;47.596;7.658;2023-09-08T14:51:27;3.85;;;3.42;;
82876;SDS011;72655;47.596;7.658;2023-09-08T14:53:54;4.38;;;3.58;;
82876;SDS011;72655;47.596;7.658;2023-09-08T14:56:21;6.40;;;3.65;;
82876;SDS011;72655;47.596;7.658;2023-09-08T14:58:48;6.25;;;3.47;;
82876;SDS011;72655;47.596;7.658;2023-09-08T15:01:15;5.38;;;3.53;;
82876;SDS011;72655;47.596;7.658;2023-09-08T15:03:42;8.30;;;3.85;;
82876;SDS011;72655;47.596;7.658;2023-09-08T15:06:10;9.65;;;4.05;;
82876;SDS011;72655;47.596;7.658;2023-09-08T15:08:37;4.10;;;3.47;;
82876;SDS011;72655;47.596;7.658;2023-09-08T15:11:08;6.60;;;4.03;;
82876;SDS011;72655;47.596;7.658;2023-09-08T15:13:35;8.68;;;4.35;;
82876;SDS011;72655;47.596;7.658;2023-09-08T15:16:02;17.83;;;4.70;;
82876;SDS011;72655;47.596;7.658;2023-09-08T15:18:29;8.23;;;3.97;;
82876;SDS011;72655;47.596;7.658;2023-09-08T15:20:56;6.13;;;3.80;;
82876;SDS011;72655;47.596;7.658;2023-09-08T15:23:25;5.45;;;3.75;;
82876;SDS011;72655;47.596;7.658;2023-09-08T15:25:52;5.53;;;4.00;;
82876;SDS011;72655;47.596;7.658;2023-09-08T15:28:20;7.90;;;4.18;;
82876;SDS011;72655;47.596;7.658;2023-09-08T15:30:48;8.45;;;3.90;;
82876;SDS011;72655;47.596;7.658;2023-09-08T15:33:15;3.88;;;3.42;;
82876;SDS011;72655;47.596;7.658;2023-09-08T15:35:43;4.88;;;3.88;;
82876;SDS011;72655;47.596;7.658;2023-09-08T15:38:10;6.60;;;3.47;;
82876;SDS011;72655;47.596;7.658;2023-09-08T15:40:39;3.88;;;3.58;;
82876;SDS011;72655;47.596;7.658;2023-09-08T15:43:42;7.35;;;4.00;;
82876;SDS011;72655;47.596;7.658;2023-09-08T15:46:11;4.43;;;3.72;;
82876;SDS011;72655;47.596;7.658;2023-09-08T15:48:38;9.13;;;3.60;;
82876;SDS011;72655;47.596;7.658;2023-09-08T15:51:06;4.38;;;3.53;;
82876;SDS011;72655;47.596;7.658;2023-09-08T15:53:33;6.22;;;3.78;;
82876;SDS011;72655;47.596;7.658;2023-09-08T15:56:02;5.60;;;3.53;;
82876;SDS011;72655;47.596;7.658;2023-09-08T15:58:29;12.57;;;4.30;;
82876;SDS011;72655;47.596;7.658;2023-09-08T16:00:56;7.22;;;3.88;;
82876;SDS011;72655;47.596;7.658;2023-09-08T16:03:23;5.32;;;3.92;;
82876;SDS011;72655;47.596;7.658;2023-09-08T16:05:50;7.07;;;4.30;;
82876;SDS011;72655;47.596;7.658;2023-09-08T16:08:17;5.75;;;3.85;;
82876;SDS011;72655;47.596;7.658;2023-09-08T16:10:45;4.90;;;4.32;;
82876;SDS011;72655;47.596;7.658;2023-09-08T16:13:13;7.47;;;4.40;;
82876;SDS011;72655;47.596;7.658;2023-09-08T16:15:40;6.32;;;4.63;;
82876;SDS011;72655;47.596;7.658;2023-09-08T16:18:09;5.75;;;4.13;;
82876;SDS011;72655;47.596;7.658;2023-09-08T16:20:37;5.47;;;4.20;;
82876;SDS011;72655;47.596;7.658;2023-09-08T16:23:04;5.57;;;4.30;;
82876;SDS011;72655;47.596;7.658;2023-09-08T16:25:31;7.75;;;4.60;;
82876;SDS011;72655;47.596;7.658;2023-09-08T16:27:58;4.60;;;4.20;;
82876;SDS011;72655;47.596;7.658;2023-09-08T16:30:27;4.88;;;4.30;;
82876;SDS011;72655;47.596;7.658;2023-09-08T16:32:54;6.82;;;4.32;;
82876;SDS011;72655;47.596;7.658;2023-09-08T16:35:21;9.40;;;4.53;;
82876;SDS011;72655;47.596;7.658;2023-09-08T16:37:48;5.95;;;4.50;;
82876;SDS011;72655;47.596;7.658;2023-09-08T16:40:15;8.20;;;4.13;;
82876;SDS011;72655;47.596;7.658;2023-09-08T16:42:42;6.25;;;4.78;;
82876;SDS011;72655;47.596;7.658;2023-09-08T16:45:09;7.68;;;4.55;;
82876;SDS011;72655;47.596;7.658;2023-09-08T16:47:37;6.93;;;4.57;;
82876;SDS011;72655;47.596;7.658;2023-09-08T16:50:05;5.10;;;4.32;;
82876;SDS011;72655;47.596;7.658;2023-09-08T16:52:33;6.93;;;4.40;;
82876;SDS011;72655;47.596;7.658;2023-09-08T16:54:59;9.55;;;5.22;;
82876;SDS011;72655;47.596;7.658;2023-09-08T16:57:26;7.45;;;4.22;;
82876;SDS011;72655;47.596;7.658;2023-09-08T16:59:53;8.57;;;4.93;;
82876;SDS011;72655;47.596;7.658;2023-09-08T17:02:20;9.55;;;4.82;;
82876;SDS011;72655;47.596;7.658;2023-09-08T17:04:53;6.70;;;4.60;;
82876;SDS011;72655;47.596;7.658;2023-09-08T17:07:20;8.65;;;4.80;;
82876;SDS011;72655;47.596;7.658;2023-09-08T17:09:47;5.50;;;4.18;;
82876;SDS011;72655;47.596;7.658;2023-09-08T17:12:14;8.07;;;4.72;;
82876;SDS011;72655;47.596;7.658;2023-09-08T17:14:41;5.93;;;4.13;;
82876;SDS011;72655;47.596;7.658;2023-09-08T17:17:08;8.77;;;4.72;;
82876;SDS011;72655;47.596;7.658;2023-09-08T17:19:35;4.70;;;4.03;;
82876;SDS011;72655;47.596;7.658;2023-09-08T17:22:03;6.28;;;4.30;;
82876;SDS011;72655;47.596;7.658;2023-09-08T17:24:31;6.07;;;5.40;;
82876;SDS011;72655;47.596;7.658;2023-09-08T17:26:58;7.45;;;4.53;;
82876;SDS011;72655;47.596;7.658;2023-09-08T17:29:25;9.73;;;5.50;;
82876;SDS011;72655;47.596;7.658;2023-09-08T17:31:52;6.78;;;5.20;;
82876;SDS011;72655;47.596;7.658;2023-09-08T17:34:19;5.97;;;4.82;;
82876;SDS011;72655;47.596;7.658;2023-09-08T17:36:47;6.38;;;5.43;;
82876;SDS011;72655;47.596;7.658;2023-09-08T17:39:19;9.27;;;4.90;;
82876;SDS011;72655;47.596;7.658;2023-09-08T17:41:46;10.43;;;5.15;;
82876;SDS011;72655;47.596;7.658;2023-09-08T17:44:14;6.78;;;5.30;;
82876;SDS011;72655;47.596;7.658;2023-09-08T17:46:41;6.78;;;4.68;;
82876;SDS011;72655;47.596;7.658;2023-09-08T17:49:08;8.48;;;4.82;;
82876;SDS011;72655;47.596;7.658;2023-09-08T17:51:35;7.63;;;4.10;;
82876;SDS011;72655;47.596;7.658;2023-09-08T17:54:02;7.68;;;5.22;;
82876;SDS011;72655;47.596;7.658;2023-09-08T17:56:30;10.38;;;4.90;;
82876;SDS011;72655;47.596;7.658;2023-09-08T17:58:58;7.90;;;4.38;;
82876;SDS011;72655;47.596;7.658;2023-09-08T18:01:25;10.27;;;5.47;;
82876;SDS011;72655;47.596;7.658;2023-09-08T18:03:52;10.18;;;4.80;;
82876;SDS011;72655;47.596;7.658;2023-09-08T18:06:19;8.00;;;4.47;;
82876;SDS011;72655;47.596;7.658;2023-09-08T18:08:46;6.03;;;4.82;;
82876;SDS011;72655;47.596;7.658;2023-09-08T18:11:16;5.50;;;4.20;;
82876;SDS011;72655;47.596;7.658;2023-09-08T18:13:47;10.02;;;4.13;;
82876;SDS011;72655;47.596;7.658;2023-09-08T18:16:14;7.75;;;4.50;;
82876;SDS011;72655;47.596;7.658;2023-09-08T18:18:42;11.65;;;5.50;;
82876;SDS011;72655;47.596;7.658;2023-09-08T18:21:10;12.18;;;5.30;;
82876;SDS011;72655;47.596;7.658;2023-09-08T18:23:38;6.40;;;4.60;;
82876;SDS011;72655;47.596;7.658;2023-09-08T18:26:05;11.25;;;5.50;;
82876;SDS011;72655;47.596;7.658;2023-09-08T18:28:32;7.22;;;5.32;;
82876;SDS011;72655;47.596;7.658;2023-09-08T18:31:01;5.80;;;4.68;;
82876;SDS011;72655;47.596;7.658;2023-09-08T18:33:28;8.45;;;4.88;;
82876;SDS011;72655;47.596;7.658;2023-09-08T18:35:55;5.78;;;4.35;;
82876;SDS011;72655;47.596;7.658;2023-09-08T18:38:22;5.65;;;4.60;;
82876;SDS011;72655;47.596;7.658;2023-09-08T18:40:49;6.38;;;5.40;;
82876;SDS011;72655;47.596;7.658;2023-09-08T18:43:16;6.03;;;4.97;;
82876;SDS011;72655;47.596;7.658;2023-09-08T18:45:44;8.63;;;5.28;;
82876;SDS011;72655;47.596;7.658;2023-09-08T18:48:12;6.40;;;5.30;;
82876;SDS011;72655;47.596;7.658;2023-09-08T18:50:39;7.93;;;5.53;;
82876;SDS011;72655;47.596;7.658;2023-09-08T18:53:07;7.47;;;4.60;;
82876;SDS011;72655;47.596;7.658;2023-09-08T18:55:34;8.00;;;5.68;;
82876;SDS011;72655;47.596;7.658;2023-09-08T18:58:01;8.00;;;5.18;;
82876;SDS011;72655;47.596;7.658;2023-09-08T19:00:30;7.20;;;5.45;;
82876;SDS011;72655;47.596;7.658;2023-09-08T19:02:57;6.10;;;5.25;;
82876;SDS011;72655;47.596;7.658;2023-09-08T19:05:25;10.85;;;5.40;;
82876;SDS011;72655;47.596;7.658;2023-09-08T19:07:53;7.43;;;5.22;;
82876;SDS011;72655;47.596;7.658;2023-09-08T19:10:20;9.63;;;5.53;;
82876;SDS011;72655;47.596;7.658;2023-09-08T19:12:47;10.13;;;5.35;;
82876;SDS011;72655;47.596;7.658;2023-09-08T19:15:14;12.38;;;6.28;;
82876;SDS011;72655;47.596;7.658;2023-09-08T19:17:42;8.98;;;6.15;;
82876;SDS011;72655;47.596;7.658;2023-09-08T19:20:10;10.35;;;6.68;;
